Scoring

Player
Player on team
GP
Games Played
G
Goals
A
Assists
P
Points
+/-
Plus-Minus Goals Scored For or Against Total
PM
Penalty Minutes
PPG
Power Play Goals
PPA
Power Play Assists
SHG
Short Handed Goals
OTG
Over Time Goals
GW
Game-Winning Goals
SHA
Short Handed Assists
SOG
Shots On Goal
SOG%
Shots On Goal Percentage
TOI/G
Time On Ice Per Game
SGM-A
Shootout Goals Made and Attempted
S. Reinhart C FLA Sam Reinhart C FLA 2 1 0 1 0 0 0 0 0 0 0 0 11 9.1 23:39 0-0
B. Hagel LW TB Brandon Hagel LW TB 2 1 0 1 -2 0 0 0 0 0 0 0 2 50.0 21:47 0-0
M. Marner RW TOR Mitchell Marner RW TOR 3 0 1 1 0 0 0 0 0 0 0 0 4 0.0 21:12 0-0
N. Kucherov RW TB Nikita Kucherov RW TB 2 0 2 2 -1 0 0 2 0 0 0 0 3 0.0 20:60 0-0
J. Guentzel C CAR Jake Guentzel C CAR 2 1 1 2 2 10 0 1 0 0 0 0 2 50.0 20:29 0-0
T. Wilson RW WAS Tom Wilson RW WAS 2 1 2 3 0 12 1 1 0 0 0 0 4 25.0 19:58 0-0
S. Jarvis C CAR Seth Jarvis C CAR 2 1 2 3 2 0 0 1 0 0 0 0 6 16.7 19:26 0-0
A. Ovechkin LW WAS Alex Ovechkin LW WAS 2 0 0 0 -1 0 0 0 0 0 0 0 1 0.0 19:25 0-0
M. Tkachuk LW FLA Matthew Tkachuk LW FLA 2 1 2 3 2 0 0 1 0 0 1 0 8 12.5 19:12 0-0
A. Panarin LW NYR Artemi Panarin LW NYR 2 1 0 1 1 0 0 0 0 0 1 0 7 14.3 19:08 0-0
B. Marchand LW BOS Brad Marchand LW BOS 3 2 4 6 2 0 1 4 0 0 1 0 12 16.7 18:54 0-0
S. Stamkos C TB Steven Stamkos C TB 2 2 1 3 -2 2 2 0 0 0 0 0 5 40.0 18:43 0-0
C. Verhaeghe C FLA Carter Verhaeghe C FLA 2 2 1 3 2 6 1 0 0 1 1 0 8 25.0 18:37 0-0
T. Bertuzzi LW TOR Tyler Bertuzzi LW TOR 3 1 1 2 0 6 0 1 0 0 0 0 11 9.1 18:36 0-0
C. Kreider LW NYR Chris Kreider LW NYR 2 1 1 2 1 2 0 0 0 0 0 1 4 25.0 18:28 0-0
D. Pastrnak RW BOS David Pastrnak RW BOS 3 1 2 3 -2 2 0 1 0 0 0 0 7 14.3 18:26 0-0
K. Palmieri C NYI Kyle Palmieri C NYI 2 1 0 1 -1 12 0 0 0 0 0 0 6 16.7 18:17 0-0
M. Barzal C NYI Mathew Barzal C NYI 2 0 1 1 -1 4 0 0 0 0 0 0 5 0.0 17:58 0-0
J. DeBrusk LW BOS Jake DeBrusk LW BOS 3 3 2 5 -2 0 3 1 0 0 0 0 7 42.9 17:42 0-0
T. Oshie RW WAS T.J. Oshie RW WAS 2 0 0 0 -1 2 0 0 0 0 0 0 2 0.0 17:38 0-0
A. Svechnikov RW CAR Andrei Svechnikov RW CAR 2 0 2 2 0 2 0 0 0 0 0 0 6 0.0 17:01 0-0
E. Luostarinen C FLA Eetu Luostarinen C FLA 2 0 0 0 0 4 0 0 0 0 0 0 1 0.0 16:08 0-0
M. Domi C TOR Max Domi C TOR 3 1 2 3 0 4 0 0 0 0 0 0 10 10.0 16:03 0-0
M. Geekie C BOS Morgan Geekie C BOS 3 1 1 2 2 0 1 0 0 0 0 0 3 33.3 16:00 0-0
C. Cizikas C NYI Casey Cizikas C NYI 2 0 1 1 0 14 0 0 0 0 0 0 2 0.0 15:50 0-0
C. Jarnkrok C TOR Calle Jarnkrok C TOR 3 0 0 0 -1 0 0 0 0 0 0 0 7 0.0 15:49 0-0
V. Tarasenko RW FLA Vladimir Tarasenko RW FLA 2 1 0 1 0 2 1 0 0 0 0 0 4 25.0 15:43 0-0
T. Teravainen LW CAR Teuvo Teravainen LW CAR 2 1 0 1 0 0 1 0 0 0 0 0 1 100.0 15:39 0-0
J. Martinook LW CAR Jordan Martinook LW CAR 2 1 0 1 2 0 0 0 0 0 1 0 6 16.7 15:27 0-0
D. Heinen LW BOS Danton Heinen LW BOS 3 0 1 1 -1 0 0 0 0 0 0 0 3 0.0 15:21 0-0
A. Protas C WAS Alexei Protas C WAS 2 0 1 1 0 0 0 0 0 0 0 0 6 0.0 14:57 0-0
A. Lafreniere LW NYR Alexis Lafreniere LW NYR 2 0 3 3 1 2 0 2 0 0 0 0 2 0.0 14:48 0-0
M. Necas C CAR Martin Necas C CAR 2 1 1 2 -1 0 0 1 0 0 0 0 3 33.3 14:44 0-0
A. Duclair LW TB Anthony Duclair LW TB 2 0 1 1 0 0 0 0 0 0 0 0 4 0.0 14:36 0-0
M. Eyssimont C TB Mikey Eyssimont C TB 2 0 0 0 0 0 0 0 0 0 0 0 3 0.0 14:30 0-0
H. Fasching RW NYI Hudson Fasching RW NYI 1 0 0 0 0 0 0 0 0 0 0 0 2 0.0 14:18 0-0
A. Lee LW NYI Anders Lee LW NYI 2 1 1 2 -3 2 1 0 0 0 0 0 8 12.5 14:02 0-0
M. Pacioretty LW WAS Max Pacioretty LW WAS 2 0 1 1 -1 2 0 1 0 0 0 0 2 0.0 13:40 0-0
E. Rodrigues C FLA Evan Rodrigues C FLA 2 0 0 0 0 0 0 0 0 0 0 0 2 0.0 13:25 0-0
M. Chaffee RW TB Mitchell Chaffee RW TB 2 0 0 0 0 2 0 0 0 0 0 0 2 0.0 13:05 0-0
B. Malenstyn LW WAS Beck Malenstyn LW WAS 2 0 0 0 -1 0 0 0 0 0 0 0 1 0.0 13:02 0-0
M. Knies LW TOR Matthew Knies LW TOR 3 1 0 1 -2 0 0 0 0 0 0 0 6 16.7 12:29 0-0
P. Engvall LW NYI Pierre Engvall LW NYI 2 0 1 1 -1 0 0 1 0 0 0 0 4 0.0 12:25 0-0
J. Vesey LW NYR Jimmy Vesey LW NYR 2 1 1 2 2 0 0 0 0 0 0 0 2 50.0 11:49 0-0
K. Kakko RW NYR Kaapo Kakko RW NYR 2 0 0 0 0 0 0 0 0 0 0 0 4 0.0 11:45 0-0
S. Milano LW WAS Sonny Milano LW WAS 2 0 0 0 -2 0 0 0 0 0 0 0 1 0.0 11:33 0-0
C. Dewar C TOR Connor Dewar C TOR 3 0 1 1 0 0 0 0 0 0 0 0 5 0.0 11:17 0-0
P. Maroon LW BOS Pat Maroon LW BOS 3 0 1 1 1 0 0 0 0 0 0 0 2 0.0 11:05 0-0
C. Clutterbuck RW NYI Cal Clutterbuck RW NYI 2 0 0 0 -1 10 0 0 0 0 0 0 1 0.0 10:60 0-0
J. Beecher C BOS John Beecher C BOS 3 1 0 1 1 2 0 0 0 0 0 0 6 16.7 10:55 0-0